Time;durP1;ratioP1;P1;durP2;ratioP2;P2;SDS_P1;SDS_P2;PMS_P1;PMS_P2;Temp;Humidity;BMP_temperature;BMP_pressure;BME280_temperature;BME280_humidity;BME280_pressure;Samples;Min_cycle;Max_cycle;Signal;HPM_P1;HPM_P2
2022/04/03 00:00:41;0.00;0.00;0.62;0.00;0.00;0.62;1.30;0.70;;;22.10;18.80;;;;;;2244016;61;20368;-52
2022/04/03 00:03:26;0.00;0.00;0.62;0.00;0.00;0.62;1.30;0.70;;;22.10;18.80;;;;;;2244249;61;20396;-53
2022/04/03 00:06:11;0.00;0.00;0.62;0.00;0.00;0.62;1.20;0.70;;;22.10;18.80;;;;;;2242390;61;20411;-52
2022/04/03 00:08:56;0.00;0.00;0.62;0.00;0.00;0.62;1.77;0.80;;;22.10;18.80;;;;;;2243953;61;20484;-50
2022/04/03 00:11:42;0.00;0.00;0.62;0.00;0.00;0.62;1.47;0.87;;;22.10;18.80;;;;;;2244319;61;20364;-49
2022/04/03 00:14:26;0.00;0.00;0.62;0.00;0.00;0.62;1.30;0.63;;;22.10;18.80;;;;;;2243684;61;20773;-53
2022/04/03 00:17:11;0.00;0.00;0.62;0.00;0.00;0.62;1.20;0.70;;;22.10;18.80;;;;;;2244481;61;20381;-52
2022/04/03 00:19:57;0.00;0.00;0.62;0.00;0.00;0.62;1.30;0.80;;;22.10;18.80;;;;;;2244221;61;20920;-51
2022/04/03 00:22:48;0.00;0.00;0.62;0.00;0.00;0.62;1.80;0.80;;;22.10;18.60;;;;;;2246084;61;20392;-50
2022/04/03 00:25:33;0.00;0.00;0.62;0.00;0.00;0.62;1.40;0.70;;;22.10;18.60;;;;;;2244210;61;20410;-50
2022/04/03 00:28:18;0.00;0.00;0.62;0.00;0.00;0.62;1.40;0.80;;;22.10;18.60;;;;;;2243391;61;20499;-51
2022/04/03 00:31:02;0.00;0.00;0.62;0.00;0.00;0.62;1.40;0.80;;;22.00;18.50;;;;;;2244673;61;20371;-51
2022/04/03 00:33:47;0.00;0.00;0.62;0.00;0.00;0.62;1.43;0.70;;;22.00;18.60;;;;;;2244975;61;20392;-49
2022/04/03 00:36:33;0.00;0.00;0.62;0.00;0.00;0.62;1.40;0.90;;;22.00;18.60;;;;;;2243929;61;20468;-51
2022/04/03 00:39:18;0.00;0.00;0.62;0.00;0.00;0.62;1.40;1.00;;;22.00;18.60;;;;;;2245133;61;20437;-51
2022/04/03 00:42:05;0.00;0.00;0.62;0.00;0.00;0.62;2.53;0.90;;;22.00;18.70;;;;;;2247437;61;20460;-51
2022/04/03 00:44:50;0.00;0.00;0.62;0.00;0.00;0.62;1.30;0.70;;;22.00;18.70;;;;;;2244286;61;20396;-48
2022/04/03 00:47:35;0.00;0.00;0.62;0.00;0.00;0.62;1.33;0.80;;;22.00;18.70;;;;;;2244757;61;20360;-52
2022/04/03 00:50:20;0.00;0.00;0.62;0.00;0.00;0.62;1.60;0.80;;;22.00;18.80;;;;;;2243892;61;20367;-50
2022/04/03 00:53:07;0.00;0.00;0.62;0.00;0.00;0.62;1.30;0.70;;;22.00;18.80;;;;;;2692476;46;20389;-52
2022/04/03 00:55:52;0.00;0.00;0.62;0.00;0.00;0.62;1.37;0.67;;;22.00;18.80;;;;;;2241336;61;20421;-52
2022/04/03 00:58:38;0.00;0.00;0.62;0.00;0.00;0.62;1.40;0.80;;;22.00;18.80;;;;;;2239652;61;20430;-52
2022/04/03 01:01:23;0.00;0.00;0.62;0.00;0.00;0.62;1.30;0.70;;;22.00;18.80;;;;;;2241266;61;20368;-48
2022/04/03 01:04:08;0.00;0.00;0.62;0.00;0.00;0.62;1.40;0.80;;;22.00;18.80;;;;;;2241194;61;20361;-51
2022/04/03 01:06:53;0.00;0.00;0.62;0.00;0.00;0.62;1.23;0.73;;;22.00;18.80;;;;;;2239855;61;20364;-50
2022/04/03 01:09:39;0.00;0.00;0.62;0.00;0.00;0.62;1.60;0.80;;;22.00;18.80;;;;;;2239555;61;20397;-50
2022/04/03 01:12:23;0.00;0.00;0.62;0.00;0.00;0.62;1.40;0.83;;;22.00;18.80;;;;;;2239305;61;20482;-53
2022/04/03 01:15:09;0.00;0.00;0.62;0.00;0.00;0.62;1.80;0.70;;;21.90;18.80;;;;;;2240281;61;20366;-49
2022/04/03 01:17:54;0.00;0.00;0.62;0.00;0.00;0.62;1.37;0.70;;;22.00;18.90;;;;;;2239762;61;20776;-54
2022/04/03 01:20:39;0.00;0.00;0.62;0.00;0.00;0.62;1.13;0.60;;;21.90;18.80;;;;;;2239129;61;20425;-49
2022/04/03 01:23:25;0.00;0.00;0.62;0.00;0.00;0.62;1.30;0.70;;;22.00;18.90;;;;;;2240270;61;20358;-52
2022/04/03 01:26:11;0.00;0.00;0.62;0.00;0.00;0.62;1.20;0.70;;;21.90;18.80;;;;;;2243657;61;20372;-51
2022/04/03 01:28:56;0.00;0.00;0.62;0.00;0.00;0.62;1.40;0.83;;;21.90;18.80;;;;;;2243056;61;20396;-49
2022/04/03 01:31:40;0.00;0.00;0.62;0.00;0.00;0.62;1.33;0.70;;;21.90;18.80;;;;;;2244768;61;20798;-47
2022/04/03 01:34:25;0.00;0.00;0.62;0.00;0.00;0.62;1.43;0.90;;;21.90;18.90;;;;;;2246265;61;20793;-47
2022/04/03 01:37:10;0.00;0.00;0.62;0.00;0.00;0.62;1.50;0.80;;;21.90;18.90;;;;;;2249363;61;20867;-49
2022/04/03 01:39:54;0.00;0.00;0.62;0.00;0.00;0.62;1.37;0.80;;;21.90;18.80;;;;;;2249308;61;20835;-48
2022/04/03 01:42:40;0.00;0.00;0.62;0.00;0.00;0.62;1.20;0.60;;;21.90;18.90;;;;;;2247728;61;20400;-51
2022/04/03 01:45:25;0.00;0.00;0.62;0.00;0.00;0.62;1.30;0.80;;;21.90;18.90;;;;;;2249277;61;20371;-49
2022/04/03 01:48:11;0.00;0.00;0.62;0.00;0.00;0.62;1.50;1.00;;;21.90;18.90;;;;;;2249119;61;20419;-48
2022/04/03 01:50:55;0.00;0.00;0.62;0.00;0.00;0.62;1.37;0.80;;;21.90;18.90;;;;;;2247174;61;20372;-49
2022/04/03 01:53:40;0.00;0.00;0.62;0.00;0.00;0.62;1.40;0.73;;;21.90;18.90;;;;;;2245342;61;20868;-47
2022/04/03 01:56:24;0.00;0.00;0.62;0.00;0.00;0.62;1.47;0.90;;;21.90;18.90;;;;;;2244138;61;20369;-53
2022/04/03 01:59:10;0.00;0.00;0.62;0.00;0.00;0.62;1.30;0.80;;;21.90;18.90;;;;;;2244126;61;20528;-50
2022/04/03 02:01:55;0.00;0.00;0.62;0.00;0.00;0.62;1.70;0.90;;;21.90;18.80;;;;;;2244094;61;20429;-46
2022/04/03 02:04:39;0.00;0.00;0.62;0.00;0.00;0.62;1.30;0.87;;;21.90;18.80;;;;;;2243143;61;20819;-51
2022/04/03 02:07:24;0.00;0.00;0.62;0.00;0.00;0.62;1.70;0.70;;;21.80;18.80;;;;;;2243267;61;20364;-51
2022/04/03 02:10:12;0.00;0.00;0.62;0.00;0.00;0.62;1.47;0.80;;;21.80;18.80;;;;;;2243602;61;20372;-49
2022/04/03 02:12:57;0.00;0.00;0.62;0.00;0.00;0.62;1.40;0.80;;;21.80;18.80;;;;;;2243099;61;20396;-48
2022/04/03 02:15:43;0.00;0.00;0.62;0.00;0.00;0.62;1.30;0.70;;;21.80;18.80;;;;;;2246381;61;20388;-48
2022/04/03 02:18:27;0.00;0.00;0.62;0.00;0.00;0.62;1.30;0.80;;;21.80;19.10;;;;;;2243253;61;20840;-47
2022/04/03 02:21:12;0.00;0.00;0.62;0.00;0.00;0.62;1.30;0.80;;;21.80;18.80;;;;;;2243757;61;20364;-47
2022/04/03 02:23:56;0.00;0.00;0.62;0.00;0.00;0.62;1.30;0.70;;;21.80;18.80;;;;;;2243585;61;20356;-47
2022/04/03 02:26:41;0.00;0.00;0.62;0.00;0.00;0.62;1.30;0.80;;;21.80;18.90;;;;;;2239071;61;20365;-51
2022/04/03 02:29:25;0.00;0.00;0.62;0.00;0.00;0.62;1.30;0.80;;;21.80;18.90;;;;;;2239816;61;20438;-48
2022/04/03 02:32:12;0.00;0.00;0.62;0.00;0.00;0.62;1.40;0.80;;;21.80;18.90;;;;;;2239988;61;20354;-45
2022/04/03 02:34:57;0.00;0.00;0.62;0.00;0.00;0.62;1.60;0.90;;;21.80;18.90;;;;;;2239180;61;20513;-47
2022/04/03 02:37:43;0.00;0.00;0.62;0.00;0.00;0.62;1.30;0.80;;;21.80;18.90;;;;;;2239978;61;20959;-51
2022/04/03 02:40:28;0.00;0.00;0.62;0.00;0.00;0.62;1.40;0.87;;;21.70;18.90;;;;;;2240232;61;20871;-48
2022/04/03 02:43:12;0.00;0.00;0.62;0.00;0.00;0.62;1.83;0.90;;;21.80;18.90;;;;;;2239012;61;20778;-48
2022/04/03 02:45:57;0.00;0.00;0.62;0.00;0.00;0.62;1.63;0.80;;;21.70;19.40;;;;;;2240050;61;20503;-47
2022/04/03 02:48:43;0.00;0.00;0.62;0.00;0.00;0.62;1.47;0.77;;;21.70;18.90;;;;;;2239114;61;20827;-48
2022/04/03 02:51:27;0.00;0.00;0.62;0.00;0.00;0.62;1.60;1.00;;;21.70;18.90;;;;;;2240023;61;20925;-51
2022/04/03 02:54:12;0.00;0.00;0.62;0.00;0.00;0.62;1.50;0.80;;;21.70;18.90;;;;;;2240232;61;20393;-47
2022/04/03 02:56:57;0.00;0.00;0.62;0.00;0.00;0.62;1.30;0.80;;;21.70;18.90;;;;;;2239158;61;20441;-50
2022/04/03 02:59:42;0.00;0.00;0.62;0.00;0.00;0.62;1.40;0.80;;;21.70;18.90;;;;;;2239866;61;20393;-50
2022/04/03 03:02:27;0.00;0.00;0.62;0.00;0.00;0.62;1.40;0.83;;;21.70;18.90;;;;;;2240041;61;20370;-48
2022/04/03 03:05:14;0.00;0.00;0.62;0.00;0.00;0.62;1.30;0.80;;;21.70;18.90;;;;;;2239091;61;20922;-47
2022/04/03 03:07:58;0.00;0.00;0.62;0.00;0.00;0.62;2.30;1.10;;;21.70;19.00;;;;;;2239788;61;20514;-47
2022/04/03 03:10:43;0.00;0.00;0.62;0.00;0.00;0.62;1.40;0.70;;;21.70;19.00;;;;;;2239389;61;20369;-52
2022/04/03 03:13:28;0.00;0.00;0.62;0.00;0.00;0.62;1.40;0.97;;;21.70;19.00;;;;;;2239329;61;20987;-53
2022/04/03 03:16:13;0.00;0.00;0.62;0.00;0.00;0.62;1.27;0.70;;;21.70;19.00;;;;;;2240018;61;20450;-48
2022/04/03 03:18:57;0.00;0.00;0.62;0.00;0.00;0.62;1.20;0.70;;;21.70;19.00;;;;;;2240108;61;20389;-48
2022/04/03 03:21:44;0.00;0.00;0.62;0.00;0.00;0.62;1.47;0.80;;;21.70;19.00;;;;;;2239695;61;20366;-47
2022/04/03 03:24:28;0.00;0.00;0.62;0.00;0.00;0.62;1.40;0.70;;;21.70;19.00;;;;;;2240911;61;20896;-46
2022/04/03 03:27:13;0.00;0.00;0.62;0.00;0.00;0.62;1.30;0.77;;;21.70;19.00;;;;;;2245207;61;20628;-46
2022/04/03 03:29:57;0.00;0.00;0.62;0.00;0.00;0.62;1.63;0.90;;;21.70;19.00;;;;;;2243798;61;20536;-51
2022/04/03 03:32:42;0.00;0.00;0.62;0.00;0.00;0.62;1.27;0.70;;;21.60;19.40;;;;;;2243514;61;20380;-48
2022/04/03 03:35:27;0.00;0.00;0.62;0.00;0.00;0.62;1.20;0.80;;;21.60;19.00;;;;;;2243593;61;20391;-52
2022/04/03 03:38:13;0.00;0.00;0.62;0.00;0.00;0.62;1.40;0.70;;;21.60;19.00;;;;;;2243761;61;20956;-50
2022/04/03 03:40:58;0.00;0.00;0.62;0.00;0.00;0.62;1.23;0.80;;;21.70;19.00;;;;;;2242811;61;20904;-52
2022/04/03 03:43:43;0.00;0.00;0.62;0.00;0.00;0.62;1.53;0.90;;;21.60;19.00;;;;;;2243550;61;20401;-50
2022/04/03 03:46:28;0.00;0.00;0.62;0.00;0.00;0.62;1.50;0.90;;;21.60;19.00;;;;;;2243825;61;20431;-50
2022/04/03 03:49:14;0.00;0.00;0.62;0.00;0.00;0.62;1.30;0.77;;;21.60;19.00;;;;;;2242505;61;20521;-52
2022/04/03 03:51:58;0.00;0.00;0.62;0.00;0.00;0.62;1.47;0.87;;;21.60;18.90;;;;;;2243896;61;21037;-49
2022/04/03 03:54:45;0.00;0.00;0.62;0.00;0.00;0.62;1.30;0.80;;;21.60;19.00;;;;;;2243919;61;20404;-49
2022/04/03 03:57:30;0.00;0.00;0.62;0.00;0.00;0.62;1.23;0.70;;;21.60;19.00;;;;;;2243554;61;20369;-46
2022/04/03 04:00:16;0.00;0.00;0.62;0.00;0.00;0.62;1.57;1.00;;;21.60;19.00;;;;;;2246154;61;20633;-46
2022/04/03 04:03:00;0.00;0.00;0.62;0.00;0.00;0.62;1.67;0.83;;;21.60;19.00;;;;;;2245339;61;20364;-49
2022/04/03 04:05:45;0.00;0.00;0.62;0.00;0.00;0.62;1.20;0.63;;;21.50;18.90;;;;;;2476482;53;20380;-47
2022/04/03 04:08:30;0.00;0.00;0.62;0.00;0.00;0.62;1.30;0.80;;;21.50;19.00;;;;;;2243710;61;20459;-49
2022/04/03 04:11:15;0.00;0.00;0.62;0.00;0.00;0.62;1.40;0.90;;;21.50;19.00;;;;;;2245168;61;20773;-50
2022/04/03 04:14:00;0.00;0.00;0.62;0.00;0.00;0.62;1.30;0.70;;;21.50;19.00;;;;;;2243999;61;20420;-48
2022/04/03 04:16:46;0.00;0.00;0.62;0.00;0.00;0.62;1.37;0.80;;;21.60;19.10;;;;;;2246623;61;20367;-45
2022/04/03 04:19:30;0.00;0.00;0.62;0.00;0.00;0.62;1.40;0.80;;;21.50;19.00;;;;;;2243703;61;20428;-51
2022/04/03 04:22:14;0.00;0.00;0.62;0.00;0.00;0.62;1.30;0.70;;;21.50;19.00;;;;;;2244808;61;20360;-49
2022/04/03 04:24:59;0.00;0.00;0.62;0.00;0.00;0.62;1.83;1.00;;;21.50;19.00;;;;;;2241998;61;21297;-50
2022/04/03 04:27:47;0.00;0.00;0.62;0.00;0.00;0.62;1.60;0.80;;;21.50;19.10;;;;;;2240912;61;20362;-48
2022/04/03 04:30:32;0.00;0.00;0.62;0.00;0.00;0.62;1.50;0.80;;;21.50;19.10;;;;;;2240747;61;20401;-48
2022/04/03 04:33:17;0.00;0.00;0.62;0.00;0.00;0.62;1.30;0.70;;;21.50;19.10;;;;;;2239110;61;20465;-51
2022/04/03 04:36:01;0.00;0.00;0.62;0.00;0.00;0.62;1.27;0.70;;;21.50;19.10;;;;;;2239857;61;20490;-46
2022/04/03 04:38:47;0.00;0.00;0.62;0.00;0.00;0.62;1.40;0.90;;;21.50;19.10;;;;;;2239563;61;20441;-45
2022/04/03 04:41:31;0.00;0.00;0.62;0.00;0.00;0.62;2.17;0.80;;;21.50;19.10;;;;;;2239127;61;20381;-48
2022/04/03 04:44:17;0.00;0.00;0.62;0.00;0.00;0.62;1.30;0.70;;;21.50;19.10;;;;;;2240030;61;20425;-48
2022/04/03 04:47:02;0.00;0.00;0.62;0.00;0.00;0.62;1.40;0.70;;;21.50;19.10;;;;;;2241220;61;20369;-49
2022/04/03 04:49:46;0.00;0.00;0.62;0.00;0.00;0.62;1.70;0.90;;;21.40;19.10;;;;;;2239684;61;20389;-51
2022/04/03 04:52:31;0.00;0.00;0.62;0.00;0.00;0.62;1.30;0.70;;;21.40;19.10;;;;;;2240053;61;20354;-49
2022/04/03 04:55:16;0.00;0.00;0.62;0.00;0.00;0.62;1.53;0.90;;;21.40;19.10;;;;;;2239761;61;20425;-50
2022/04/03 04:58:00;0.00;0.00;0.62;0.00;0.00;0.62;1.40;0.70;;;21.50;19.20;;;;;;2241126;61;20393;-47
2022/04/03 05:00:47;0.00;0.00;0.62;0.00;0.00;0.62;1.30;0.70;;;21.40;19.10;;;;;;2240777;61;20768;-47
2022/04/03 05:03:32;0.00;0.00;0.62;0.00;0.00;0.62;1.50;0.90;;;21.40;19.10;;;;;;2240298;61;20421;-47
2022/04/03 05:06:16;0.00;0.00;0.62;0.00;0.00;0.62;1.20;0.70;;;21.40;19.10;;;;;;2241327;61;20361;-45
2022/04/03 05:09:03;0.00;0.00;0.62;0.00;0.00;0.62;1.30;0.80;;;21.40;19.10;;;;;;2240130;61;20453;-49
2022/04/03 05:11:49;0.00;0.00;0.62;0.00;0.00;0.62;1.53;1.00;;;21.40;19.10;;;;;;2240715;61;20458;-48
2022/04/03 05:14:34;0.00;0.00;0.62;0.00;0.00;0.62;1.87;0.80;;;21.40;19.10;;;;;;2240801;61;20705;-47
2022/04/03 05:17:20;0.00;0.00;0.62;0.00;0.00;0.62;1.40;0.80;;;21.40;19.10;;;;;;2240033;61;20362;-47
2022/04/03 05:20:06;0.00;0.00;0.62;0.00;0.00;0.62;1.90;1.10;;;21.40;19.10;;;;;;2241208;61;20373;-49
2022/04/03 05:22:51;0.00;0.00;0.62;0.00;0.00;0.62;1.90;0.97;;;21.40;19.20;;;;;;2240861;61;20895;-49
2022/04/03 05:25:36;0.00;0.00;0.62;0.00;0.00;0.62;1.60;0.77;;;21.40;19.10;;;;;;2242870;61;20452;-48
2022/04/03 05:28:21;0.00;0.00;0.62;0.00;0.00;0.62;1.43;1.07;;;21.40;19.10;;;;;;2244665;61;20444;-48
2022/04/03 05:31:06;0.00;0.00;0.62;0.00;0.00;0.62;1.40;0.77;;;21.40;19.10;;;;;;2244900;61;20373;-51
2022/04/03 05:33:52;0.00;0.00;0.62;0.00;0.00;0.62;1.30;0.70;;;21.40;19.20;;;;;;2247349;61;20381;-49
2022/04/03 05:36:37;0.00;0.00;0.62;0.00;0.00;0.62;1.50;0.80;;;21.40;19.10;;;;;;2245153;61;20423;-53
2022/04/03 05:39:21;0.00;0.00;0.62;0.00;0.00;0.62;1.30;0.80;;;21.40;19.20;;;;;;2243543;61;20809;-47
2022/04/03 05:42:07;0.00;0.00;0.62;0.00;0.00;0.62;1.20;0.70;;;21.40;19.20;;;;;;2244659;61;20364;-52
2022/04/03 05:44:52;0.00;0.00;0.62;0.00;0.00;0.62;1.20;0.63;;;21.40;19.20;;;;;;2244504;61;20772;-50
2022/04/03 05:47:37;0.00;0.00;0.62;0.00;0.00;0.62;1.40;0.80;;;21.40;19.20;;;;;;2243197;61;20901;-53
2022/04/03 05:50:24;0.00;0.00;0.62;0.00;0.00;0.62;1.40;0.70;;;21.40;19.20;;;;;;2243917;61;20377;-50
2022/04/03 05:53:08;0.00;0.00;0.62;0.00;0.00;0.62;1.70;1.00;;;21.40;19.20;;;;;;2246508;61;20388;-49
2022/04/03 05:55:53;0.00;0.00;0.62;0.00;0.00;0.62;1.60;0.90;;;21.40;19.20;;;;;;2243830;61;20361;-50
2022/04/03 05:58:38;0.00;0.00;0.62;0.00;0.00;0.62;1.60;1.10;;;21.40;19.20;;;;;;2244076;61;20400;-49
2022/04/03 06:01:23;0.00;0.00;0.62;0.00;0.00;0.62;1.40;0.90;;;21.40;19.20;;;;;;2245284;61;20444;-48
2022/04/03 06:04:08;0.00;0.00;0.62;0.00;0.00;0.62;1.50;0.83;;;21.40;19.30;;;;;;2243898;61;20439;-50
2022/04/03 06:06:54;0.00;0.00;0.62;0.00;0.00;0.62;1.40;0.77;;;21.40;19.30;;;;;;2244312;61;20494;-50
2022/04/03 06:09:39;0.00;0.00;0.62;0.00;0.00;0.62;1.30;0.70;;;21.40;19.30;;;;;;2242781;61;20404;-51
2022/04/03 06:12:06;0.00;0.00;0.62;0.00;0.00;0.62;1.53;0.87;;;21.40;19.30;;;;;;2244141;61;20428;-50
2022/04/03 06:14:50;0.00;0.00;0.62;0.00;0.00;0.62;1.30;0.70;;;21.40;19.30;;;;;;2246289;61;20452;-51
2022/04/03 06:17:35;0.00;0.00;0.62;0.00;0.00;0.62;1.20;0.67;;;21.40;19.30;;;;;;2243132;61;20373;-48
2022/04/03 06:20:21;0.00;0.00;0.62;0.00;0.00;0.62;1.67;1.00;;;21.40;19.30;;;;;;2244415;61;20920;-50
2022/04/03 06:23:12;0.00;0.00;0.62;0.00;0.00;0.62;1.30;0.70;;;21.30;19.20;;;;;;2243463;61;20497;-53
2022/04/03 06:25:58;0.00;0.00;0.62;0.00;0.00;0.62;1.53;0.80;;;21.30;19.30;;;;;;2240449;61;20385;-46
2022/04/03 06:28:42;0.00;0.00;0.62;0.00;0.00;0.62;1.40;0.70;;;21.40;19.30;;;;;;2239910;61;20425;-48
2022/04/03 06:31:27;0.00;0.00;0.62;0.00;0.00;0.62;1.63;0.90;;;21.30;19.20;;;;;;2239201;61;20874;-48
2022/04/03 06:34:12;0.00;0.00;0.62;0.00;0.00;0.62;1.40;0.73;;;21.30;19.20;;;;;;2239972;61;20926;-46
2022/04/03 06:36:56;0.00;0.00;0.62;0.00;0.00;0.62;1.27;0.70;;;21.40;19.30;;;;;;2240113;61;20366;-52
2022/04/03 06:39:42;0.00;0.00;0.62;0.00;0.00;0.62;1.20;0.70;;;21.30;19.30;;;;;;2239577;61;20384;-52
2022/04/03 06:42:29;0.00;0.00;0.62;0.00;0.00;0.62;1.30;0.73;;;21.30;19.30;;;;;;2240768;61;20377;-47
2022/04/03 06:45:15;0.00;0.00;0.62;0.00;0.00;0.62;3.30;0.70;;;21.30;19.30;;;;;;2244977;61;20870;-49
2022/04/03 06:48:00;0.00;0.00;0.62;0.00;0.00;0.62;1.47;0.70;;;21.30;19.30;;;;;;2242740;61;20391;-49
2022/04/03 06:50:45;0.00;0.00;0.62;0.00;0.00;0.62;1.30;0.70;;;21.30;19.30;;;;;;2240483;61;20390;-52
2022/04/03 06:53:30;0.00;0.00;0.62;0.00;0.00;0.62;2.33;0.80;;;21.30;19.30;;;;;;2239735;61;20429;-48
2022/04/03 06:56:16;0.00;0.00;0.62;0.00;0.00;0.62;1.47;0.73;;;21.30;19.30;;;;;;2240432;61;20429;-48
2022/04/03 06:59:01;0.00;0.00;0.62;0.00;0.00;0.62;1.37;0.70;;;21.40;19.30;;;;;;2239886;61;20474;-51
2022/04/03 07:01:46;0.00;0.00;0.62;0.00;0.00;0.62;1.20;0.70;;;21.30;19.30;;;;;;2238830;61;20425;-51
2022/04/03 07:04:31;0.00;0.00;0.62;0.00;0.00;0.62;1.30;0.70;;;21.40;19.40;;;;;;2240126;61;20462;-48
2022/04/03 07:07:21;0.00;0.00;0.62;0.00;0.00;0.62;1.63;0.70;;;21.30;19.30;;;;;;2239695;61;20826;-52
2022/04/03 07:10:08;0.00;0.00;0.62;0.00;0.00;0.62;1.40;0.80;;;21.30;19.30;;;;;;2244329;61;20375;-47
2022/04/03 07:12:55;0.00;0.00;0.62;0.00;0.00;0.62;2.03;0.90;;;21.40;19.40;;;;;;2247994;61;20943;-52
2022/04/03 07:15:39;0.00;0.00;0.62;0.00;0.00;0.62;1.40;0.80;;;21.30;19.30;;;;;;2247744;61;20775;-55
2022/04/03 07:18:24;0.00;0.00;0.62;0.00;0.00;0.62;1.30;0.70;;;21.30;19.30;;;;;;2247819;61;20379;-50
2022/04/03 07:21:08;0.00;0.00;0.62;0.00;0.00;0.62;1.40;0.90;;;21.30;19.20;;;;;;2248207;61;20372;-50
2022/04/03 07:23:53;0.00;0.00;0.62;0.00;0.00;0.62;1.60;1.03;;;21.30;19.20;;;;;;2247082;61;20841;-53
2022/04/03 07:26:37;0.00;0.00;0.62;0.00;0.00;0.62;1.70;1.30;;;21.30;19.10;;;;;;2478807;53;20377;-53
2022/04/03 07:29:25;0.00;0.00;0.62;0.00;0.00;0.62;1.50;1.07;;;21.40;19.10;;;;;;2240951;61;20776;-52
2022/04/03 07:32:09;0.00;0.00;0.62;0.00;0.00;0.62;2.53;1.53;;;21.30;19.00;;;;;;2241349;61;20377;-54
2022/04/03 07:34:54;0.00;0.00;0.62;0.00;0.00;0.62;2.17;1.63;;;21.30;18.80;;;;;;2239303;61;20808;-52
2022/04/03 07:37:39;0.00;0.00;0.62;0.00;0.00;0.62;2.30;1.50;;;21.20;18.50;;;;;;2238981;61;20374;-52
2022/04/03 07:40:45;0.00;0.00;0.62;0.00;0.00;0.62;2.03;1.33;;;21.20;18.50;;;;;;2240076;61;20368;-51
2022/04/03 07:43:41;0.00;0.00;0.62;0.00;0.00;0.62;2.23;1.50;;;21.20;18.60;;;;;;2240217;61;20381;-53
2022/04/03 07:46:27;0.00;0.00;0.62;0.00;0.00;0.62;5.97;2.23;;;21.20;18.60;;;;;;2241460;61;20382;-51
2022/04/03 07:49:12;0.00;0.00;0.62;0.00;0.00;0.62;2.63;1.87;;;21.10;18.30;;;;;;2240058;61;20913;-54
2022/04/03 07:51:56;0.00;0.00;0.62;0.00;0.00;0.62;2.80;1.90;;;21.00;18.20;;;;;;2241973;61;20765;-55
2022/04/03 07:54:41;0.00;0.00;0.62;0.00;0.00;0.62;2.23;1.70;;;21.00;18.10;;;;;;2240731;61;20537;-50
2022/04/03 07:57:26;0.00;0.00;0.62;0.00;0.00;0.62;2.27;1.70;;;21.00;18.10;;;;;;2240152;61;20370;-50
2022/04/03 08:00:13;0.00;0.00;0.62;0.00;0.00;0.62;1.83;1.67;;;20.90;18.10;;;;;;2239954;61;20850;-52
2022/04/03 08:02:59;0.00;0.00;0.62;0.00;0.00;0.62;2.63;1.60;;;20.90;18.00;;;;;;2241949;61;20369;-48
2022/04/03 08:05:44;0.00;0.00;0.62;0.00;0.00;0.62;2.43;1.67;;;20.80;18.00;;;;;;2239702;61;20377;-50
2022/04/03 08:08:28;0.00;0.00;0.62;0.00;0.00;0.62;2.33;1.50;;;20.80;18.10;;;;;;2238777;61;20420;-52
2022/04/03 08:11:13;0.00;0.00;0.62;0.00;0.00;0.62;2.00;1.27;;;20.80;18.20;;;;;;2239637;61;20895;-49
2022/04/03 08:13:58;0.00;0.00;0.62;0.00;0.00;0.62;2.33;1.43;;;20.80;18.40;;;;;;2239216;61;20523;-52
2022/04/03 08:16:42;0.00;0.00;0.62;0.00;0.00;0.62;2.13;1.13;;;20.80;18.50;;;;;;2239519;61;20433;-52
2022/04/03 08:19:28;0.00;0.00;0.62;0.00;0.00;0.62;1.63;1.17;;;20.80;18.60;;;;;;2241515;61;20400;-57
2022/04/03 08:22:13;0.00;0.00;0.62;0.00;0.00;0.62;1.93;1.50;;;20.80;18.70;;;;;;2243597;61;20380;-50
2022/04/03 08:24:58;0.00;0.00;0.62;0.00;0.00;0.62;1.70;1.13;;;20.80;18.80;;;;;;2245727;61;20368;-51
2022/04/03 08:27:46;0.00;0.00;0.62;0.00;0.00;0.62;1.30;0.90;;;20.80;18.90;;;;;;2243896;61;20372;-53
2022/04/03 08:30:34;0.00;0.00;0.62;0.00;0.00;0.62;2.00;1.20;;;20.80;18.90;;;;;;2243435;61;20416;-52
2022/04/03 08:33:19;0.00;0.00;0.62;0.00;0.00;0.62;1.60;1.03;;;20.80;18.90;;;;;;2244449;61;20795;-51
2022/04/03 08:36:05;0.00;0.00;0.62;0.00;0.00;0.62;1.90;1.00;;;20.90;19.00;;;;;;2243150;61;20394;-52
2022/04/03 08:38:50;0.00;0.00;0.62;0.00;0.00;0.62;1.60;1.10;;;20.90;19.10;;;;;;2252069;61;20838;-50
2022/04/03 08:41:35;0.00;0.00;0.62;0.00;0.00;0.62;1.93;1.20;;;20.90;19.10;;;;;;2243022;61;21021;-49
2022/04/03 08:44:20;0.00;0.00;0.62;0.00;0.00;0.62;1.40;0.93;;;20.90;19.10;;;;;;2242539;61;20363;-50
2022/04/03 08:47:08;0.00;0.00;0.62;0.00;0.00;0.62;1.63;1.00;;;21.00;19.20;;;;;;2239383;61;20469;-50
2022/04/03 08:49:57;0.00;0.00;0.62;0.00;0.00;0.62;1.90;1.00;;;21.00;19.20;;;;;;2240093;61;20501;-53
2022/04/03 08:52:47;0.00;0.00;0.62;0.00;0.00;0.62;1.70;0.93;;;21.00;19.20;;;;;;2239106;61;20889;-51
2022/04/03 08:55:33;0.00;0.00;0.62;0.00;0.00;0.62;2.00;1.27;;;21.00;19.30;;;;;;2244217;61;20632;-53
2022/04/03 08:58:18;0.00;0.00;0.62;0.00;0.00;0.62;2.20;1.13;;;21.10;19.40;;;;;;2243288;61;20387;-53
2022/04/03 09:01:02;0.00;0.00;0.62;0.00;0.00;0.62;1.70;1.00;;;21.10;19.40;;;;;;2243807;61;20372;-50
2022/04/03 09:03:47;0.00;0.00;0.62;0.00;0.00;0.62;1.50;0.87;;;21.10;19.90;;;;;;2246143;61;20384;-48
2022/04/03 09:06:32;0.00;0.00;0.62;0.00;0.00;0.62;2.10;1.13;;;21.20;19.40;;;;;;2242763;61;20363;-57
2022/04/03 09:09:22;0.00;0.00;0.62;0.00;0.00;0.62;1.80;1.10;;;21.20;19.40;;;;;;2243807;61;20435;-54
2022/04/03 09:12:09;0.00;0.00;0.62;0.00;0.00;0.62;2.63;1.00;;;21.20;19.50;;;;;;2244092;61;20373;-54
2022/04/03 09:14:56;0.00;0.00;0.62;0.00;0.00;0.62;1.50;0.90;;;21.20;19.40;;;;;;2242616;61;20919;-58
2022/04/03 09:17:44;0.00;0.00;0.62;0.00;0.00;0.62;2.37;1.00;;;21.20;19.50;;;;;;2244275;61;20372;-58
2022/04/03 09:20:31;0.00;0.00;0.62;0.00;0.00;0.62;1.97;1.43;;;21.30;19.50;;;;;;2243556;61;20925;-54
2022/04/03 09:23:18;0.00;0.00;0.62;0.00;0.00;0.62;1.40;0.90;;;21.30;19.50;;;;;;2243424;61;20895;-55
2022/04/03 09:26:15;0.00;0.00;0.62;0.00;0.00;0.62;1.30;0.80;;;21.30;19.50;;;;;;2243907;61;20427;-53
2022/04/03 09:29:22;0.00;0.00;0.62;0.00;0.00;0.62;1.90;0.97;;;21.40;19.60;;;;;;2242634;61;20516;-55
2022/04/03 09:32:07;0.00;0.00;0.62;0.00;0.00;0.62;1.93;0.80;;;21.40;19.80;;;;;;2244067;61;20880;-60
2022/04/03 09:34:56;0.00;0.00;0.62;0.00;0.00;0.62;1.57;0.97;;;21.40;19.80;;;;;;2243851;61;20435;-54
2022/04/03 09:38:07;0.00;0.00;0.62;0.00;0.00;0.62;1.70;1.00;;;21.40;19.80;;;;;;2243435;61;20412;-54
2022/04/03 09:40:53;0.00;0.00;0.62;0.00;0.00;0.62;1.87;1.33;;;21.50;19.80;;;;;;2246015;61;20431;-55
2022/04/03 09:43:39;0.00;0.00;0.62;0.00;0.00;0.62;1.70;1.20;;;21.50;19.70;;;;;;2242875;61;20432;-53
2022/04/03 09:46:29;0.00;0.00;0.62;0.00;0.00;0.62;1.90;1.27;;;21.50;19.60;;;;;;2471329;53;20888;-51
2022/04/03 09:49:24;0.00;0.00;0.62;0.00;0.00;0.62;1.90;1.30;;;21.60;19.70;;;;;;2239659;61;20425;-49
2022/04/03 09:52:09;0.00;0.00;0.62;0.00;0.00;0.62;2.37;1.23;;;21.60;19.60;;;;;;2245103;61;20368;-53
2022/04/03 09:54:53;0.00;0.00;0.62;0.00;0.00;0.62;1.90;1.20;;;21.60;19.60;;;;;;2247988;61;20849;-51
2022/04/03 09:57:38;0.00;0.00;0.62;0.00;0.00;0.62;1.80;1.17;;;21.60;19.60;;;;;;2247116;61;20407;-52
2022/04/03 10:00:32;0.00;0.00;0.62;0.00;0.00;0.62;1.60;1.10;;;21.70;19.70;;;;;;2247605;61;20796;-49
2022/04/03 10:03:17;0.00;0.00;0.62;0.00;0.00;0.62;2.03;1.20;;;21.70;19.70;;;;;;2247726;61;20507;-51
2022/04/03 10:06:03;0.00;0.00;0.62;0.00;0.00;0.62;2.10;1.20;;;21.70;19.70;;;;;;2246896;61;20364;-52
2022/04/03 10:08:48;0.00;0.00;0.62;0.00;0.00;0.62;2.00;1.37;;;21.70;19.60;;;;;;2247707;61;20395;-51
2022/04/03 10:11:33;0.00;0.00;0.62;0.00;0.00;0.62;1.77;1.07;;;21.80;19.70;;;;;;2247366;61;20363;-53
2022/04/03 10:14:20;0.00;0.00;0.62;0.00;0.00;0.62;1.70;1.20;;;21.80;19.70;;;;;;2246729;61;20395;-55
2022/04/03 10:17:07;0.00;0.00;0.62;0.00;0.00;0.62;1.93;1.30;;;21.80;19.70;;;;;;2247729;61;20419;-52
2022/04/03 10:19:52;0.00;0.00;0.62;0.00;0.00;0.62;2.00;1.00;;;21.80;19.70;;;;;;2247330;61;20400;-57
2022/04/03 10:22:39;0.00;0.00;0.62;0.00;0.00;0.62;1.43;0.90;;;21.90;19.80;;;;;;2248677;61;20368;-53
2022/04/03 10:25:29;0.00;0.00;0.62;0.00;0.00;0.62;1.50;1.00;;;21.90;19.80;;;;;;2244550;61;20372;-55
2022/04/03 10:28:17;0.00;0.00;0.62;0.00;0.00;0.62;1.83;0.93;;;21.90;19.80;;;;;;2242812;61;20393;-55
2022/04/03 10:31:07;0.00;0.00;0.62;0.00;0.00;0.62;1.67;0.90;;;21.90;19.80;;;;;;2243730;61;20376;-56
2022/04/03 10:33:53;0.00;0.00;0.62;0.00;0.00;0.62;2.00;1.10;;;22.00;19.90;;;;;;2243756;61;20416;-58
2022/04/03 10:36:39;0.00;0.00;0.62;0.00;0.00;0.62;1.80;1.00;;;22.00;19.90;;;;;;2243056;61;20400;-53
2022/04/03 10:39:27;0.00;0.00;0.62;0.00;0.00;0.62;2.13;1.20;;;22.00;19.80;;;;;;2243586;61;20395;-58
2022/04/03 10:42:25;0.00;0.00;0.62;0.00;0.00;0.62;1.70;1.00;;;22.00;19.80;;;;;;2243259;61;21033;-55
2022/04/03 10:45:28;0.00;0.00;0.62;0.00;0.00;0.62;1.87;1.33;;;22.10;19.90;;;;;;2239363;61;20453;-56
2022/04/03 10:48:30;0.00;0.00;0.62;0.00;0.00;0.62;1.70;1.00;;;22.10;19.80;;;;;;2517840;46;20409;-54
2022/04/03 10:51:24;0.00;0.00;0.62;0.00;0.00;0.62;1.57;0.90;;;22.10;19.70;;;;;;2239119;61;20373;-48
2022/04/03 10:54:09;0.00;0.00;0.62;0.00;0.00;0.62;1.97;1.20;;;22.10;20.20;;;;;;2242405;61;20393;-53